Station History

Weather Underground - logo

Station Historical Data
Daily Summary for February 14, 2018 Units:  Metric    English   Both
« Previous Day
Next Day »
Daily Weekly Monthly Yearly Custom
  High: Low: Average:
Temperature: -17.8 °C 3.7 °C 10.6 °C
Dew Point: -17.8 °C 0.8 °C 3.5 °C
Humidity: Humidity % 33 % 64 %
Wind Speed: 0 km/h 0 km/h 1.4 km/h
Wind Gust: 0 km/h - -
Wind:- - SSW
Pressure: 0 hPa 1018.5 hPa -
Precipitation: 0 mm    
Historical Graphs
 
 
Tabular Data for February 14, 2018
Time Temperature Dew Point Pressure Wind Wind Speed Wind Gust Humidity Rainfall Rate (Hourly)
-17.8 °C -17.8 °C 0 hPa Calm     Humidity % 0 mm
00:02 8 °C 3.1 °C 1021.6 hPa Calm     71 % 0 mm
00:07 7.8 °C 3.1 °C 1021.6 hPa Calm     72 % 0 mm
00:12 7.6 °C 3 °C 1021.6 hPa Calm     73 % 0 mm
00:17 7.4 °C 3.1 °C 1021.6 hPa Calm     74 % 0 mm
00:22 7.2 °C 2.9 °C 1021.6 hPa Calm     74 % 0 mm
00:27 7 °C 2.9 °C 1021.6 hPa Calm     75 % 0 mm
00:32 6.8 °C 2.7 °C 1021.6 hPa Calm     75 % 0 mm
00:37 6.7 °C 2.6 °C 1021.6 hPa Calm     75 % 0 mm
00:42 6.8 °C 2.4 °C 1021.6 hPa Calm     74 % 0 mm
00:47 6.9 °C 2.6 °C 1021.6 hPa Calm     74 % 0 mm
00:52 6.7 °C 2.4 °C 1021.6 hPa Calm     74 % 0 mm
00:57 6.6 °C 2.3 °C 1021.6 hPa Calm     74 % 0 mm
01:02 6.6 °C 2.2 °C 1021.6 hPa Calm     74 % 0 mm
01:07 6.7 °C 2.2 °C 1021.6 hPa Calm     73 % 0 mm
01:13 6.9 °C 2.2 °C 1021.2 hPa Calm     72 % 0 mm
01:18 7.1 °C 2.2 °C 1021.2 hPa Calm     71 % 0 mm
01:23 7.2 °C 2.3 °C 1021.2 hPa Calm     71 % 0 mm
01:28 7.3 °C 2.2 °C 1021.2 hPa Calm     70 % 0 mm
01:33 7.2 °C 2.3 °C 1021.2 hPa Calm     71 % 0 mm
01:38 7.1 °C 2.2 °C 1021.2 hPa Calm     71 % 0 mm
01:43 7 °C 2.1 °C 1021.2 hPa Calm     71 % 0 mm
01:48 6.9 °C 2 °C 1021.2 hPa Calm     71 % 0 mm
01:53 6.8 °C 2.1 °C 1021.2 hPa Calm     72 % 0 mm
01:58 6.9 °C 2.2 °C 1021.2 hPa Calm     72 % 0 mm
02:03 6.6 °C 2.1 °C 1021.2 hPa Calm     73 % 0 mm
02:08 5.9 °C 2.1 °C 1021.2 hPa Calm     76 % 0 mm
02:13 5.8 °C 2.1 °C 1021.2 hPa Calm     77 % 0 mm
02:18 5.7 °C 2.2 °C 1021.2 hPa Calm     78 % 0 mm
02:23 5.6 °C 2 °C 1021.2 hPa Calm     78 % 0 mm
02:28 5.4 °C 2.1 °C 1021.2 hPa Calm     79 % 0 mm
02:33 5.3 °C 2 °C 1021.2 hPa Calm     79 % 0 mm
02:38 5.3 °C 2 °C 1021.2 hPa Calm     79 % 0 mm
02:43 5.2 °C 1.8 °C 1021.2 hPa Calm     79 % 0 mm
02:48 5.2 °C 1.8 °C 1021.2 hPa Calm     79 % 0 mm
02:53 5.2 °C 2 °C 1021.2 hPa Calm     80 % 0 mm
02:58 5.6 °C 2.1 °C 1021.2 hPa Calm     78 % 0 mm
03:03 5.8 °C 1.9 °C 1020.9 hPa Calm     76 % 0 mm
03:08 5.9 °C 1.8 °C 1020.9 hPa Calm     75 % 0 mm
03:13 5.9 °C 1.8 °C 1020.9 hPa Calm     75 % 0 mm
03:18 5.8 °C 1.7 °C 1020.9 hPa Calm     75 % 0 mm
03:23 5.7 °C 1.6 °C 1020.9 hPa Calm     75 % 0 mm
03:28 5.7 °C 1.6 °C 1020.9 hPa Calm     75 % 0 mm
03:33 5.6 °C 1.4 °C 1020.9 hPa Calm     75 % 0 mm
03:38 5.4 °C 1.6 °C 1020.9 hPa Calm     76 % 0 mm
03:43 5.3 °C 1.4 °C 1020.9 hPa Calm     76 % 0 mm
03:48 5.1 °C 1.4 °C 1020.9 hPa Calm     77 % 0 mm
03:53 5.1 °C 1.3 °C 1020.9 hPa Calm     77 % 0 mm
03:58 5.1 °C 1.6 °C 1020.5 hPa Calm     78 % 0 mm
04:03 5.1 °C 1.3 °C 1020.9 hPa Calm     77 % 0 mm
04:08 5.1 °C 1.4 °C 1020.5 hPa Calm     77 % 0 mm
04:13 5.1 °C 1.6 °C 1020.5 hPa Calm     78 % 0 mm
04:18 4.9 °C 1.4 °C 1020.5 hPa Calm     78 % 0 mm
04:23 4.8 °C 1.3 °C 1020.5 hPa Calm     78 % 0 mm
04:28 4.9 °C 1.4 °C 1020.5 hPa Calm     78 % 0 mm
04:33 5 °C 1.5 °C 1020.5 hPa Calm     78 % 0 mm
04:38 4.9 °C 1.4 °C 1020.5 hPa Calm     78 % 0 mm
04:43 4.9 °C 1.4 °C 1020.5 hPa Calm     78 % 0 mm
04:48 4.7 °C 1.4 °C 1020.5 hPa Calm     79 % 0 mm
04:53 4.3 °C 0.8 °C 1020.5 hPa Calm     78 % 0 mm
04:58 3.9 °C 0.8 °C 1020.2 hPa Calm     80 % 0 mm
05:03 3.8 °C 0.8 °C 1020.2 hPa Calm     81 % 0 mm
05:08 3.7 °C 0.9 °C 1020.2 hPa Calm     82 % 0 mm
05:13 3.8 °C 1.2 °C 1020.2 hPa Calm     83 % 0 mm
05:18 4.1 °C 1.3 °C 1020.2 hPa Calm     82 % 0 mm
05:23 4.4 °C 1.3 °C 1020.2 hPa Calm     80 % 0 mm
05:28 4.9 °C 1.4 °C 1020.2 hPa Calm     78 % 0 mm
05:33 5.3 °C 1.4 °C 1020.2 hPa Calm     76 % 0 mm
05:38 5.4 °C 1.4 °C 1020.2 hPa Calm     75 % 0 mm
05:43 5.6 °C 1.5 °C 1020.5 hPa Calm     75 % 0 mm
05:48 5.6 °C 1.9 °C 1020.5 hPa Calm     77 % 0 mm
05:53 5.4 °C 1.7 °C 1020.5 hPa Calm     77 % 0 mm
05:58 5.1 °C 1.8 °C 1020.5 hPa Calm     79 % 0 mm
06:03 4.8 °C 1.7 °C 1020.5 hPa Calm     80 % 0 mm
06:08 4.8 °C 1.8 °C 1020.5 hPa Calm     81 % 0 mm
06:14 4.9 °C 1.9 °C 1020.9 hPa Calm     81 % 0 mm
06:19 4.9 °C 2.1 °C 1020.9 hPa Calm     82 % 0 mm
06:24 4.9 °C 1.9 °C 1020.9 hPa Calm     81 % 0 mm
06:29 4.9 °C 2.1 °C 1020.9 hPa Calm     82 % 0 mm
06:34 4.8 °C 2.2 °C 1020.9 hPa Calm     83 % 0 mm
06:39 4.7 °C 2.2 °C 1021.2 hPa Calm     84 % 0 mm
06:44 4.7 °C 2.3 °C 1021.2 hPa Calm     85 % 0 mm
06:49 4.7 °C 2.2 °C 1021.2 hPa Calm     84 % 0 mm
06:54 4.8 °C 2.5 °C 1021.2 hPa Calm     85 % 0 mm
06:59 4.8 °C 2.4 °C 1021.2 hPa Calm     85 % 0 mm
07:04 4.8 °C 2.6 °C 1021.2 hPa Calm     86 % 0 mm
07:09 4.8 °C 2.7 °C 1021.2 hPa Calm     86 % 0 mm
07:14 4.9 °C 2.6 °C 1021.2 hPa Calm     85 % 0 mm
07:19 5.1 °C 2.8 °C 1021.2 hPa Calm     85 % 0 mm
07:24 5.3 °C 2.8 °C 1021.2 hPa Calm     84 % 0 mm
07:29 5.4 °C 2.8 °C 1021.6 hPa Calm     83 % 0 mm
07:34 5.6 °C 2.9 °C 1021.6 hPa Calm     83 % 0 mm
07:39 5.7 °C 3.1 °C 1021.6 hPa Calm     83 % 0 mm
07:44 5.9 °C 3.1 °C 1021.6 hPa Calm     82 % 0 mm
07:49 6.1 °C 3.2 °C 1021.9 hPa Calm     82 % 0 mm
07:54 6.2 °C 3.3 °C 1021.9 hPa Calm     82 % 0 mm
07:59 6.3 °C 3.5 °C 1021.9 hPa Calm     82 % 0 mm
08:04 6.5 °C 3.8 °C 1021.9 hPa Calm     83 % 0 mm
08:09 6.7 °C 4 °C 1022.2 hPa Calm     83 % 0 mm
08:14 6.8 °C 4 °C 1022.2 hPa Calm     82 % 0 mm
08:19 6.9 °C 4.1 °C 1022.2 hPa Calm     82 % 0 mm
08:24 7.2 °C 4.3 °C 1022.2 hPa Calm     82 % 0 mm
08:29 7.4 °C 4.4 °C 1022.2 hPa Calm     81 % 0 mm
08:34 7.8 °C 4.6 °C 1022.2 hPa Calm     80 % 0 mm
08:39 8.2 °C 4.4 °C 1022.2 hPa Calm     77 % 0 mm
08:44 8.7 °C 4.3 °C 1022.6 hPa SSE 3.7 km/h 3.7 km/h 74 % 0 mm
08:49 9.2 °C 4.4 °C 1022.6 hPa SE 5.6 km/h 5.6 km/h 72 % 0 mm
08:54 9.6 °C 4.6 °C 1022.6 hPa South 5.6 km/h 5.6 km/h 71 % 0 mm
08:59 10.1 °C 4.8 °C 1022.6 hPa SSW 9.7 km/h 9.7 km/h 70 % 0 mm
09:04 10.3 °C 4.9 °C 1022.6 hPa SSW 3.7 km/h 3.7 km/h 69 % 0 mm
09:09 10.6 °C 4.9 °C 1022.6 hPa SE 5.6 km/h 5.6 km/h 68 % 0 mm
09:14 10.8 °C 4.7 °C 1022.6 hPa SSW 8 km/h 8 km/h 66 % 0 mm
09:19 11.1 °C 4.8 °C 1022.6 hPa SSE 3.7 km/h 3.7 km/h 65 % 0 mm
09:24 11.4 °C 4.8 °C 1022.6 hPa SSE 5.6 km/h 5.6 km/h 64 % 0 mm
09:29 11.7 °C 5.3 °C 1022.6 hPa SE 1.9 km/h   65 % 0 mm
09:34 11.9 °C 5.1 °C 1022.6 hPa SSE 5.6 km/h 5.6 km/h 63 % 0 mm
09:39 12.1 °C 5 °C 1022.6 hPa SSE 3.7 km/h 3.7 km/h 62 % 0 mm
09:44 12.2 °C 5.2 °C 1022.6 hPa SSE 3.7 km/h   62 % 0 mm
09:49 12.7 °C 5.2 °C 1022.6 hPa SSW 3.7 km/h 3.7 km/h 60 % 0 mm
09:54 13 °C 4.9 °C 1022.2 hPa ESE 5.6 km/h 5.6 km/h 58 % 0 mm
09:59 13.3 °C 5 °C 1022.2 hPa SE 12.9 km/h 12.9 km/h 57 % 0 mm
10:04 13.4 °C 5.1 °C 1022.2 hPa SE 7.4 km/h 7.4 km/h 57 % 0 mm
10:09 13.4 °C 4.8 °C 1022.2 hPa SSE 7.4 km/h 7.4 km/h 56 % 0 mm
10:14 13.3 °C 4.9 °C 1022.6 hPa SE 6.4 km/h 6.4 km/h 57 % 0 mm
10:19 13.2 °C 5.1 °C 1022.6 hPa South 1.9 km/h 1.9 km/h 58 % 0 mm
10:24 13.2 °C 5.4 °C 1022.6 hPa ENE 7.4 km/h 7.4 km/h 59 % 0 mm
10:29 13.6 °C 5.4 °C 1022.2 hPa ESE 9.3 km/h 9.3 km/h 58 % 0 mm
10:34 14.2 °C 6.3 °C 1022.2 hPa SSE 3.7 km/h 3.7 km/h 59 % 0 mm
10:39 14.7 °C 5.7 °C 1022.2 hPa ENE 9.3 km/h 9.3 km/h 55 % 0 mm
10:44 15.2 °C 5.7 °C 1022.2 hPa South 11.1 km/h 11.1 km/h 53 % 0 mm
10:49 15.6 °C 6.3 °C 1021.9 hPa South 7.4 km/h 7.4 km/h 54 % 0 mm
10:54 15.9 °C 5.5 °C 1021.9 hPa SE 5.6 km/h 5.6 km/h 50 % 0 mm
10:59 16.3 °C 5.3 °C 1021.9 hPa SSE 7.4 km/h 7.4 km/h 48 % 0 mm
11:04 16.6 °C 5.2 °C 1021.9 hPa ESE 9.3 km/h 9.3 km/h 47 % 0 mm
11:09 16.8 °C 5.1 °C 1021.9 hPa SE 7.4 km/h 7.4 km/h 46 % 0 mm
11:14 16.9 °C 5.6 °C 1021.6 hPa South 7.4 km/h 7.4 km/h 47 % 0 mm
11:19 17.2 °C 5.8 °C 1021.6 hPa SSE 7.4 km/h 7.4 km/h 47 % 0 mm
11:24 17.4 °C 5.7 °C 1021.6 hPa SSE 5.6 km/h 5.6 km/h 46 % 0 mm
11:29 17.3 °C 4.9 °C 1021.6 hPa South 13 km/h 13 km/h 44 % 0 mm
11:34 17.3 °C 5.2 °C 1021.6 hPa ESE 9.3 km/h 9.3 km/h 45 % 0 mm
11:39 17.4 °C 5.3 °C 1021.6 hPa South 9.3 km/h 9.3 km/h 45 % 0 mm
11:44 17.7 °C 5 °C 1021.2 hPa SW 11.1 km/h 11.1 km/h 43 % 0 mm
11:49 17.8 °C 4.7 °C 1021.2 hPa SSE 11.1 km/h 11.1 km/h 42 % 0 mm
11:54 18.1 °C 5 °C 1021.2 hPa SSW 5.6 km/h 5.6 km/h 42 % 0 mm
11:59 18.3 °C 4.8 °C 1021.2 hPa SSE 8 km/h 8 km/h 41 % 0 mm
12:04 18.3 °C 4.4 °C 1020.9 hPa SSE 5.6 km/h 5.6 km/h 40 % 0 mm
12:09 18.2 °C 4.4 °C 1020.9 hPa SSE 5.6 km/h 5.6 km/h 40 % 0 mm
12:14 18.4 °C 4.9 °C 1020.9 hPa WSW 5.6 km/h 5.6 km/h 41 % 0 mm
12:19 18.6 °C 4.7 °C 1020.9 hPa South 3.7 km/h 3.7 km/h 40 % 0 mm
12:24 18.7 °C 4.4 °C 1020.5 hPa SSE 5.6 km/h 5.6 km/h 39 % 0 mm
12:29 18.8 °C 4.9 °C 1020.5 hPa ESE 9.3 km/h   40 % 0 mm
12:34 18.8 °C 4.9 °C 1020.5 hPa WSW 5.6 km/h 5.6 km/h 40 % 0 mm
12:39 18.8 °C 4.9 °C 1020.5 hPa SSE 3.7 km/h 3.7 km/h 40 % 0 mm
12:44 18.7 °C 4.8 °C 1020.5 hPa SSE 1.6 km/h 2.1 km/h 40 % 0 mm
12:49 18.7 °C 4.8 °C 1020.5 hPa SW 1.9 km/h   40 % 0 mm
12:55 18.4 °C 4.9 °C 1020.2 hPa NNW 5.6 km/h 5.6 km/h 41 % 0 mm
13:00 18.2 °C 5.1 °C 1020.2 hPa SSE 3.7 km/h 3.7 km/h 42 % 0 mm
13:05 18.3 °C 5.2 °C 1020.2 hPa SSE 5.6 km/h 5.6 km/h 42 % 0 mm
13:10 18.4 °C 4.9 °C 1020.2 hPa South 5.6 km/h 5.6 km/h 41 % 0 mm
13:15 18.4 °C 5.9 °C 1020.2 hPa South 3.7 km/h 3.7 km/h 44 % 0 mm
13:20 18.4 °C 5.9 °C 1019.9 hPa SSW 3.7 km/h 3.7 km/h 44 % 0 mm
13:25 18.4 °C 5.9 °C 1019.9 hPa NNW 3.2 km/h 3.2 km/h 44 % 0 mm
13:30 18.4 °C 5.9 °C 1019.9 hPa South 1.9 km/h   44 % 0 mm
13:35 18.7 °C 6.2 °C 1019.9 hPa Calm     44 % 0 mm
13:40 18.8 °C 5.9 °C 1019.9 hPa NNW 3.2 km/h 3.2 km/h 43 % 0 mm
13:45 18.6 °C 5.4 °C 1019.5 hPa WNW 3.7 km/h 3.7 km/h 42 % 0 mm
13:50 18.7 °C 6.6 °C 1019.5 hPa Calm     45 % 0 mm
13:55 18.7 °C 4.8 °C 1019.5 hPa NNW 1.9 km/h   40 % 0 mm
14:00 18.7 °C 4.4 °C 1019.5 hPa NW 3.7 km/h 3.7 km/h 39 % 0 mm
14:05 18.5 °C 4.3 °C 1019.5 hPa Calm     39 % 0 mm
14:10 18.6 °C 4.3 °C 1019.5 hPa SSE 1.9 km/h 1.9 km/h 39 % 0 mm
14:15 18.7 °C 4.1 °C 1019.2 hPa Calm     38 % 0 mm
14:20 19.1 °C 4.4 °C 1019.2 hPa SW 1.9 km/h 1.9 km/h 38 % 0 mm
14:25 19.3 °C 3.5 °C 1019.2 hPa NW 1.9 km/h   35 % 0 mm
14:30 19.5 °C 4.8 °C 1019.2 hPa NW 3.2 km/h 3.2 km/h 38 % 0 mm
14:35 19.4 °C 4.3 °C 1019.2 hPa NNW 1.9 km/h 1.9 km/h 37 % 0 mm
14:40 19.2 °C 4.2 °C 1019.2 hPa NW 3.7 km/h   37 % 0 mm
14:45 18.9 °C 4.3 °C 1019.2 hPa NW 1.9 km/h 1.9 km/h 38 % 0 mm
14:50 18.9 °C 4.3 °C 1019.2 hPa WNW 3.7 km/h 3.7 km/h 38 % 0 mm
14:55 19 °C 3.9 °C 1019.2 hPa NW 1.9 km/h 1.9 km/h 37 % 0 mm
15:00 18.9 °C 3.9 °C 1019.2 hPa West 1.9 km/h   37 % 0 mm
15:05 19.1 °C 3.7 °C 1019.2 hPa NW 5.6 km/h 5.6 km/h 36 % 0 mm
15:10 18.9 °C 2.3 °C 1019.2 hPa NW 1.9 km/h 1.9 km/h 33 % 0 mm
15:15 18.8 °C 3.1 °C 1018.8 hPa NW 3.7 km/h 3.7 km/h 35 % 0 mm
15:20 18.7 °C 3.3 °C 1018.8 hPa West 1.9 km/h 1.9 km/h 36 % 0 mm
15:25 18.6 °C 2.8 °C 1018.8 hPa ESE 1.9 km/h   35 % 0 mm
15:30 18.6 °C 3.6 °C 1018.8 hPa WNW 3.2 km/h 3.2 km/h 37 % 0 mm
15:35 18.6 °C 4.3 °C 1018.8 hPa NW 1.9 km/h 1.9 km/h 39 % 0 mm
15:40 18.4 °C 4.2 °C 1018.8 hPa Calm     39 % 0 mm
15:45 18.4 °C 4.2 °C 1018.5 hPa SE 1.9 km/h   39 % 0 mm
15:50 18.3 °C 4.1 °C 1018.5 hPa Calm     39 % 0 mm
15:55 18.3 °C 3.7 °C 1018.5 hPa NNW 1.9 km/h 1.9 km/h 38 % 0 mm
16:00 18.3 °C 3.4 °C 1018.5 hPa NNW 1.9 km/h 1.9 km/h 37 % 0 mm
16:05 18.3 °C 3.4 °C 1018.5 hPa Calm     37 % 0 mm
16:10 18.3 °C 3.3 °C 1018.5 hPa NNW 1.9 km/h 1.9 km/h 37 % 0 mm
16:15 18.3 °C 3.7 °C 1018.5 hPa West 1.9 km/h 1.9 km/h 38 % 0 mm
16:20 18.2 °C 3.2 °C 1018.5 hPa Calm     37 % 0 mm
16:25 18.1 °C 3.9 °C 1018.5 hPa Calm     39 % 0 mm
16:30 18.1 °C 3.5 °C 1018.5 hPa Calm     38 % 0 mm
16:35 18 °C 3.1 °C 1018.5 hPa NW 1.9 km/h   37 % 0 mm
16:40 17.9 °C 3.4 °C 1018.5 hPa NW 1.9 km/h 1.9 km/h 38 % 0 mm
16:45 17.9 °C 3 °C 1018.5 hPa Calm     37 % 0 mm
16:50 17.8 °C 4 °C 1018.5 hPa NW 1.9 km/h 1.9 km/h 40 % 0 mm
16:55 17.7 °C 3.9 °C 1018.5 hPa Calm     40 % 0 mm
17:00 17.6 °C 4.2 °C 1018.5 hPa Calm     41 % 0 mm
17:05 17.3 °C 3.9 °C 1018.5 hPa Calm     41 % 0 mm
17:10 17.1 °C 4.1 °C 1018.5 hPa Calm     42 % 0 mm
17:15 16.9 °C 4.2 °C 1018.5 hPa Calm     43 % 0 mm
17:20 16.6 °C 4.3 °C 1018.5 hPa Calm     44 % 0 mm
17:25 16.3 °C 4.1 °C 1018.5 hPa Calm     44 % 0 mm
17:30 16.1 °C 4.1 °C 1018.5 hPa Calm     45 % 0 mm
17:35 15.7 °C 4.1 °C 1018.5 hPa Calm     46 % 0 mm
17:40 15.3 °C 4 °C 1018.5 hPa Calm     47 % 0 mm
17:45 14.9 °C 4.6 °C 1018.5 hPa Calm     50 % 0 mm
17:50 14.5 °C 4.2 °C 1018.5 hPa Calm     50 % 0 mm
17:55 14.1 °C 4.9 °C 1018.5 hPa Calm     54 % 0 mm
18:00 13.8 °C 4.4 °C 1018.5 hPa Calm     53 % 0 mm
18:05 13.4 °C 4.6 °C 1018.5 hPa Calm     55 % 0 mm
18:10 13.2 °C 4.6 °C 1018.5 hPa Calm     56 % 0 mm
18:15 12.9 °C 4.9 °C 1018.5 hPa Calm     58 % 0 mm
18:20 12.7 °C 5.4 °C 1018.5 hPa Calm     61 % 0 mm
18:25 12.4 °C 5.1 °C 1018.5 hPa Calm     61 % 0 mm
18:30 12.2 °C 4.9 °C 1018.5 hPa Calm     61 % 0 mm
18:35 12 °C 5.4 °C 1018.5 hPa Calm     64 % 0 mm
18:40 11.8 °C 5.2 °C 1018.5 hPa Calm     64 % 0 mm
18:45 11.7 °C 5.3 °C 1018.5 hPa Calm     65 % 0 mm
18:50 11.5 °C 5.4 °C 1018.5 hPa Calm     66 % 0 mm
18:55 11.3 °C 5.4 °C 1018.5 hPa Calm     67 % 0 mm
19:00 11.1 °C 5.4 °C 1018.5 hPa Calm     68 % 0 mm
19:05 11 °C 5.3 °C 1018.5 hPa Calm     68 % 0 mm
19:10 10.9 °C 4.8 °C 1018.8 hPa Calm     66 % 0 mm
19:15 10.8 °C 4.7 °C 1018.8 hPa Calm     66 % 0 mm
19:20 10.9 °C 4.6 °C 1018.5 hPa Calm     65 % 0 mm
19:25 11 °C 4.7 °C 1018.5 hPa Calm     65 % 0 mm
19:30 11 °C 4.4 °C 1018.5 hPa Calm     64 % 0 mm
19:35 10.9 °C 4.6 °C 1018.8 hPa Calm     65 % 0 mm
19:40 10.6 °C 4.3 °C 1018.8 hPa Calm     65 % 0 mm
19:45 10.6 °C 4.4 °C 1018.8 hPa Calm     66 % 0 mm
19:50 10.8 °C 4.4 °C 1018.8 hPa Calm     65 % 0 mm
19:55 10.9 °C 4.6 °C 1018.8 hPa Calm     65 % 0 mm
20:00 10.5 °C 4.6 °C 1018.8 hPa Calm     67 % 0 mm
20:05 10.2 °C 4.4 °C 1018.8 hPa Calm     67 % 0 mm
20:10 10.2 °C 4.1 °C 1018.8 hPa Calm     66 % 0 mm
20:15 10 °C 4.6 °C 1019.2 hPa Calm     69 % 0 mm
20:20 9.7 °C 4.5 °C 1019.2 hPa Calm     70 % 0 mm
20:25 9.5 °C 4.5 °C 1019.2 hPa Calm     71 % 0 mm
20:30 9.2 °C 4.4 °C 1019.2 hPa Calm     72 % 0 mm
20:35 9.1 °C 4.4 °C 1019.2 hPa Calm     73 % 0 mm
20:40 9.1 °C 4.3 °C 1019.2 hPa Calm     72 % 0 mm
20:45 9 °C 4.4 °C 1019.2 hPa Calm     73 % 0 mm
20:50 8.8 °C 4.2 °C 1019.5 hPa Calm     73 % 0 mm
20:55 8.6 °C 4.2 °C 1019.5 hPa Calm     74 % 0 mm
21:00 8.3 °C 3.9 °C 1019.5 hPa Calm     74 % 0 mm
21:05 8.2 °C 4 °C 1019.5 hPa Calm     75 % 0 mm
21:10 7.9 °C 3.9 °C 1019.9 hPa Calm     76 % 0 mm
21:15 8 °C 4.2 °C 1019.9 hPa Calm     77 % 0 mm
21:20 8 °C 4 °C 1019.9 hPa Calm     76 % 0 mm
21:25 7.8 °C 3.9 °C 1019.9 hPa Calm     76 % 0 mm
21:30 7.7 °C 3.9 °C 1019.9 hPa Calm     77 % 0 mm
21:35 7.7 °C 3.9 °C 1019.9 hPa Calm     77 % 0 mm
21:40 7.6 °C 3.8 °C 1020.2 hPa Calm     77 % 0 mm
21:45 7.4 °C 3.6 °C 1020.2 hPa Calm     77 % 0 mm
21:51 7.4 °C 3.6 °C 1020.2 hPa Calm     77 % 0 mm
21:56 7.3 °C 3.5 °C 1020.2 hPa Calm     77 % 0 mm
22:01 7.2 °C 3.7 °C 1020.2 hPa Calm     78 % 0 mm
22:06 7.1 °C 3.5 °C 1020.2 hPa Calm     78 % 0 mm
22:11 6.9 °C 3.3 °C 1020.5 hPa Calm     78 % 0 mm
22:16 6.7 °C 3.4 °C 1020.5 hPa Calm     80 % 0 mm
22:21 6.6 °C 3.4 °C 1020.5 hPa Calm     80 % 0 mm
22:26 6.5 °C 3.3 °C 1020.5 hPa Calm     80 % 0 mm
22:31 6.4 °C 3.4 °C 1020.5 hPa Calm     81 % 0 mm
22:36 6.3 °C 3.4 °C 1020.5 hPa Calm     82 % 0 mm
22:41 6.2 °C 3.4 °C 1020.5 hPa Calm     82 % 0 mm
22:46 6.2 °C 3.3 °C 1020.5 hPa Calm     82 % 0 mm
22:51 6 °C 3.2 °C 1020.5 hPa Calm     82 % 0 mm
22:56 5.8 °C 3 °C 1020.9 hPa Calm     82 % 0 mm
23:01 5.7 °C 3.1 °C 1020.9 hPa Calm     83 % 0 mm
23:06 5.6 °C 2.9 °C 1020.9 hPa Calm     83 % 0 mm
23:11 5.4 °C 2.8 °C 1020.9 hPa Calm     83 % 0 mm
23:16 5.3 °C 2.8 °C 1020.9 hPa Calm     84 % 0 mm
23:21 5.3 °C 2.8 °C 1020.9 hPa Calm     84 % 0 mm
23:26 5.4 °C 3.1 °C 1020.9 hPa Calm     85 % 0 mm
23:31 5.4 °C 2.9 °C 1020.9 hPa Calm     84 % 0 mm
23:36 5.5 °C 2.8 °C 1020.9 hPa Calm     83 % 0 mm
23:41 5.5 °C 2.7 °C 1020.9 hPa Calm     82 % 0 mm
23:46 5.5 °C 2.5 °C 1020.9 hPa Calm     81 % 0 mm
23:51 5.3 °C 2.3 °C 1020.9 hPa Calm     81 % 0 mm
23:56 5.2 °C 2.4 °C 1020.9 hPa Calm     82 % 0 mm
Park Place, Exeter, Tulare County, California, USA
Compliments of Weather Underground - 2.75 mb